RIPO2: Cimarron River Near Ripley, OK

                                SHEF ID:       RIPO2     Cimarron River near Ripley, OK
STATION TYPE:
Regulating: Stage = 20.00, Flow = 33370

PRECIP ELEVATION STAGE RIV-FLOW AIR-TEMP WIND-DIRWIND-SPEED REL-HUMID VOLTAGE BAT-LOAD
in ft ft cfs F deg mph % volt volt
Ccp-Rev Ccp-Rev Ccp-Rev Ccp-Rev Ccp-Rev Ccp-Rev Ccp-Rev Ccp-Rev Ccp-Rev Ccp-Rev
(America/Chicago)
04/24 00:00 0.00 ---- 7.37 391 161.24 ---- ---- ---- ---- 12.67
04/24 01:00 0.00 ---- 7.29 357 156.20 ---- ---- ---- ---- 12.60
04/24 02:00 0.52 ---- 7.41 409 144.50 ---- ---- ---- ---- 12.58
04/24 03:00 0.10 ---- 7.41 409 142.70 ---- ---- ---- ---- 12.57
04/24 04:00 0.00 ---- 7.43 418 141.26 ---- ---- ---- ---- 12.57
04/24 05:00 0.00 ---- 7.44 422 140.00 ---- ---- ---- ---- 12.56
04/24 06:00 0.00 ---- 7.44 422 139.64 ---- ---- ---- ---- 12.54
04/24 07:00 0.00 ---- 7.44 422 138.56 ---- ---- ---- ---- 12.51
04/24 08:00 0.00 ---- 7.43 418 141.08 ---- ---- ---- ---- 12.48
04/24 09:00 0.00 ---- 7.42 413 142.52 ---- ---- ---- ---- 12.70
04/24 10:00 0.00 ---- 7.38 395 145.76 ---- ---- ---- ---- 13.23
04/24 11:00 0.00 ---- 7.40 404 148.28 ---- ---- ---- ---- 13.62
04/24 12:00 0.00 ---- 7.39 400 153.86 ---- ---- ---- ---- 13.59
04/24 13:00 0.00 ---- 7.37 391 159.44 ---- ---- ---- ---- 13.55
04/24 14:00 0.00 ---- 7.40 404 165.20 ---- ---- ---- ---- 13.51
04/24 15:00 0.00 ---- 7.35 382 166.10 ---- ---- ---- ---- 13.44
04/24 16:00 0.00 ---- 7.41 409 170.06 ---- ---- ---- ---- 13.43
04/24 17:00 0.00 ---- 7.35 382 173.84 ---- ---- ---- ---- 13.43
04/24 18:00 0.00 ---- 7.43 418 179.42 ---- ---- ---- ---- 13.41
04/24 19:00 0.00 ---- 7.36 387 176.90 ---- ---- ---- ---- 13.39
04/24 20:00 0.00 ---- 7.42 413 166.10 ---- ---- ---- ---- 13.39
04/24 21:00 0.00 ---- 7.41 409 156.38 ---- ---- ---- ---- 13.26
04/24 22:00 0.00 ---- 7.42 413 151.16 ---- ---- ---- ---- 13.03
04/24 23:00 0.00 ---- 7.42 413 149.36 ---- ---- ---- ---- 12.88
Data processed at Sat 25Apr2026 04:02 GMT

NOTICE: If you are parsing this page

Please convert to using our Data API. Starting early 2026 we will be migrating to: https://water.usace.army.mil with modern pages rendered in JavaScript. When this migration completes you will no longer be able to scrape this page! CWMSDataAPI (CDA)

Timeseries IDs (TSIDs)

TSIDs used from left to right in the data table
RIPL.Precip-Inc.Total.1Hour.1Hour.Ccp-Rev
RIPL.Stage.Inst.1Hour.0.Ccp-Rev
RIPL.Flow.Inst.1Hour.0.Ccp-Rev
RIPL.Temp-Air.Inst.1Hour.0.Ccp-Rev
RIPL.Dir-Wind.Inst.1Hour.0.Ccp-Rev
RIPL.Speed-Wind.Inst.1Hour.0.Ccp-Rev
RIPL.%-Humidity.Inst.1Hour.0.Ccp-Rev
RIPL.Volt-Battery.Inst.1Hour.0.Ccp-Rev
RIPL.Volt-Battery Load.Inst.1Hour.0.Ccp-Rev

                            

All information presented herein is the property of the government of the United States of America and may be revised or deleted at any time without prior notice. Dissemination of this information without the expressed written consent of the Public Affairs Office, Tulsa District U.S. Army Corps of Engineers is strictly prohibited. These data are gathered electronically and, as presented, have NOT undergone any form of quality control. These data are NOT guaranteed to be valid or correct.